Burley, ID (83318)

4:07 PM MDT on September 20, 2014 (GMT -0600)
4 miles west of Burley | Change Station
CLOSE
Current Station
Personal Weather Station
Location: Burley, ID
Elevation: 4134 ft
Nearby Weather Stations

Elev 4134 ft 42.55 °N, 113.87 °W | Updated 8 seconds ago

Clear
Clear
80.2 °F
Feels Like 79 °F
N
0.0
Wind Variable Wind from North
Gusts 0.0 mph

Today
High -- | Low -- °F
--% Chance of Precip.
Yesterday
High -- | Low -- °F
Precip. -- in
7:20 AM 7:35 PM
Waning Crescent, 10% visible
Pressure 30.01 in
Visibility 10.0 miles
Clouds Clear
Heat Index 79 °F
Dew Point 45 °F
Humidity 29%
Rainfall 0.00 in
Snow Depth 1 in , 0 in , 0 in
UV 5 out of 12
Pollen 6.90 out of 12
Air Quality Not available.
Flu Activity Not available.
METAR KBYI 202153Z AUTO 08005KT 10SM CLR 27/04 A3012 RMK AO2 SLP163 T02670039

More Conditions Fewer Conditions

Pressure 30.01 in
Visibility 10.0 miles
Clouds Clear
Heat Index 79 °F
Dew Point 45 °F
Humidity 29%
Rainfall 0.00 in
Snow Depth 1 in , 0 in , 0 in
UV 5 out of 12
Pollen 6.90 out of 12
Air Quality Not available.
Flu Activity Not available.
METAR KBYI 202153Z AUTO 08005KT 10SM CLR 27/04 A3012 RMK AO2 SLP163 T02670039

More Conditions Fewer Conditions

10-Day Weather Forecast

Almanac

Astronomy

Sep. 20, 2014 Rise Set
Actual Time 7:20 AM MDT 7:35 PM MDT
Civil Twilight 6:52 AM MDT 8:03 PM MDT
Nautical Twilight 6:19 AM MDT 8:36 PM MDT
Astronomical Twilight 5:45 AM MDT 9:10 PM MDT
Moon 3:59 AM MDT 5:44 PM MDT
Length of Visible Light 13h 11m
Length of Day
12h 15m
Tomorrow will be 2m 50s shorter.
Waning Crescent, 10% of the Moon is Illuminated
Today
Waning Crescent
Sep 24
New
Oct 1
First Quarter
Oct 8
Full
Oct 15
Last Quarter

Today's Extremes

State Highs State Lows

Community

WunderPhotos

Upload Photos

1,754,966 photos uploaded!

WunderBlogs® & News

Nearby

Snow Depth

Station Depth Elevation
Big Creek Summit 1 in 6580 ft
Lookout 0 in 5140 ft
Myrtle Creek 0 in 3520 ft
Mud Flat 0 in 5730 ft
Bear Basin 0 in 5350 ft

Earthquake Activity

City Distance Mag. Time & Date
No recent earthquake activity has been reported nearby.
Minimum magnitude displayed is 2.5.

Coastal Water Temperatures

Place Temperature
No Stations Reporting

Nearby Weather Stations